Time;durP1;ratioP1;P1;durP2;ratioP2;P2;SDS_P1;SDS_P2;PMS_P1;PMS_P2;Temp;Humidity;BMP_temperature;BMP_pressure;BME280_temperature;BME280_humidity;BME280_pressure;Samples;Min_cycle;Max_cycle;Signal;HPM_P1;HPM_P2
2022/10/16 00:02:18;;;;;;;3.80;2.20;;;;;;;11.76;89.46;100928.47;5015478;28;20458;-77
2022/10/16 00:04:44;;;;;;;4.45;2.25;;;;;;;11.76;89.94;100936.28;5012440;28;20091;-77
2022/10/16 00:07:09;;;;;;;4.75;2.28;;;;;;;11.74;90.20;100927.66;5018583;28;20373;-78
2022/10/16 00:09:34;;;;;;;2.85;2.05;;;;;;;11.73;90.22;100928.56;5018555;28;20034;-78
2022/10/16 00:11:59;;;;;;;5.10;2.40;;;;;;;11.73;90.52;100919.91;5014268;28;20385;-77
2022/10/16 00:14:25;;;;;;;3.97;2.25;;;;;;;11.75;90.23;100921.56;5011794;28;20049;-77
2022/10/16 00:16:50;;;;;;;4.60;2.35;;;;;;;11.73;90.69;100922.50;5017566;28;20429;-77
2022/10/16 00:19:15;;;;;;;4.03;2.22;;;;;;;11.74;90.50;100929.44;5017644;28;20032;-77
2022/10/16 00:21:42;;;;;;;3.60;2.25;;;;;;;11.73;90.41;100930.31;5016112;28;20530;-77
2022/10/16 00:24:10;;;;;;;4.30;2.17;;;;;;;11.73;90.62;100925.94;5012502;28;20121;-77
2022/10/16 00:26:37;;;;;;;4.45;2.40;;;;;;;11.73;90.38;100927.72;4995650;28;20387;-77
2022/10/16 00:29:04;;;;;;;3.63;2.25;;;;;;;11.69;90.54;100922.59;5019996;28;20396;-77
2022/10/16 00:31:29;;;;;;;3.78;2.10;;;;;;;11.69;90.64;100922.59;5014873;28;20164;-77
2022/10/16 00:33:55;;;;;;;4.30;2.10;;;;;;;11.69;90.72;100932.19;5015242;28;20129;-77
2022/10/16 00:36:22;;;;;;;4.18;2.50;;;;;;;11.65;90.56;100931.38;5017928;28;20079;-77
2022/10/16 00:38:54;;;;;;;5.63;2.15;;;;;;;11.64;90.91;100923.63;5019141;28;20029;-77
2022/10/16 00:41:20;;;;;;;4.82;2.20;;;;;;;11.62;90.97;100923.66;5017008;28;20071;-78
2022/10/16 00:43:53;;;;;;;3.50;2.13;;;;;;;11.62;90.83;100928.03;5021319;28;20026;-78
2022/10/16 00:46:34;;;;;;;5.18;2.50;;;;;;;11.59;91.13;100923.75;5013571;28;20018;-77
2022/10/16 00:49:00;;;;;;;4.63;2.10;;;;;;;11.57;90.97;100930.78;5010012;28;20032;-77
2022/10/16 00:51:32;;;;;;;2.80;2.00;;;;;;;11.56;90.70;100929.06;5016826;28;20113;-77
2022/10/16 00:53:57;;;;;;;4.05;2.08;;;;;;;11.54;91.18;100925.63;5015291;28;20063;-77
2022/10/16 00:56:23;;;;;;;2.83;1.90;;;;;;;11.55;91.04;100932.56;5000904;28;20025;-77
2022/10/16 00:58:49;;;;;;;3.58;2.25;;;;;;;11.55;90.89;100935.16;5016390;28;20121;-77
2022/10/16 01:01:14;;;;;;;4.32;1.95;;;;;;;11.54;91.04;100933.47;5017676;28;20038;-77
2022/10/16 01:03:39;;;;;;;4.00;2.10;;;;;;;11.54;90.95;100928.25;5012709;28;20085;-77
2022/10/16 01:06:16;;;;;;;4.47;2.10;;;;;;;11.53;91.22;100935.19;5019287;28;20038;-77
2022/10/16 01:08:58;;;;;;;5.68;1.90;;;;;;;11.52;91.06;100928.31;5012762;28;20041;-77
2022/10/16 01:11:36;;;;;;;3.50;2.03;;;;;;;11.50;91.08;100922.28;5013799;28;20084;-77
2022/10/16 01:14:11;;;;;;;4.10;1.95;;;;;;;11.50;91.37;100921.41;5019127;28;20073;-77
2022/10/16 01:16:45;;;;;;;3.60;1.92;;;;;;;11.48;91.25;100921.47;5015590;28;20030;-77
2022/10/16 01:19:20;;;;;;;4.07;2.00;;;;;;;11.48;91.29;100916.25;5014953;28;20449;-78
2022/10/16 01:21:47;;;;;;;4.13;1.80;;;;;;;11.48;91.32;100917.97;5016106;28;20108;-78
2022/10/16 01:24:15;;;;;;;3.45;1.85;;;;;;;11.48;91.16;100917.97;5016571;28;20048;-77
2022/10/16 01:27:06;;;;;;;3.97;1.73;;;;;;;11.47;91.57;100921.50;5016226;28;20026;-77
2022/10/16 01:29:44;;;;;;;3.20;1.98;;;;;;;11.46;91.36;100927.59;5017410;28;20095;-77
2022/10/16 01:32:37;;;;;;;3.13;1.90;;;;;;;11.47;91.44;100930.16;5012875;28;20030;-77
2022/10/16 01:35:16;;;;;;;3.00;1.85;;;;;;;11.47;91.53;100934.50;5018574;28;20499;-78
2022/10/16 01:37:54;;;;;;;5.70;1.90;;;;;;;11.47;91.74;100926.69;5020033;28;20037;-77
2022/10/16 01:40:23;;;;;;;5.30;1.70;;;;;;;11.46;91.74;100933.66;5019170;28;20032;-77
2022/10/16 01:42:54;;;;;;;3.25;1.77;;;;;;;11.47;91.85;100926.69;5023426;28;20496;-77
2022/10/16 01:45:21;;;;;;;2.95;1.80;;;;;;;11.48;91.72;100931.00;5019824;28;20036;-77
2022/10/16 01:47:49;;;;;;;3.33;1.63;;;;;;;11.48;91.88;100936.22;5019807;28;20041;-78
2022/10/16 01:50:16;;;;;;;4.05;1.77;;;;;;;11.46;91.95;100932.81;5019427;28;20025;-77
2022/10/16 01:52:46;;;;;;;4.15;1.63;;;;;;;11.47;92.12;100934.50;5016551;28;20109;-77
2022/10/16 01:55:17;;;;;;;4.15;1.90;;;;;;;11.47;91.93;100929.31;5018966;28;20021;-77
2022/10/16 01:57:47;;;;;;;3.78;1.67;;;;;;;11.48;91.92;100925.81;5013844;28;20026;-77
2022/10/16 02:00:16;;;;;;;3.28;1.58;;;;;;;11.48;92.04;100925.81;4995887;28;20024;-77
2022/10/16 02:02:44;;;;;;;3.83;1.52;;;;;;;11.49;92.11;100932.72;5006221;28;20025;-77
2022/10/16 02:05:15;;;;;;;6.45;1.65;;;;;;;11.49;92.19;100936.19;5014385;28;20025;-77
2022/10/16 02:07:42;;;;;;;2.58;1.63;;;;;;;11.48;92.35;100937.09;5017283;28;20101;-78
2022/10/16 02:10:08;;;;;;;5.22;1.80;;;;;;;11.49;92.02;100933.59;5019707;28;20032;-77
2022/10/16 02:12:39;;;;;;;3.83;1.77;;;;;;;11.48;91.92;100937.09;5015827;28;20021;-77
2022/10/16 02:15:05;;;;;;;2.70;1.40;;;;;;;11.50;91.84;100934.44;5018182;28;20026;-78
2022/10/16 02:17:31;;;;;;;2.92;1.60;;;;;;;11.49;91.92;100937.94;5013173;28;20563;-77
2022/10/16 02:19:57;;;;;;;2.00;1.27;;;;;;;11.48;91.69;100933.63;5014756;28;20033;-77
2022/10/16 02:22:36;;;;;;;3.03;1.60;;;;;;;11.48;92.00;100938.81;5015898;28;20025;-77
2022/10/16 02:25:26;;;;;;;2.20;1.40;;;;;;;11.48;91.58;100942.31;5016880;28;20030;-77
2022/10/16 02:28:01;;;;;;;2.72;1.52;;;;;;;11.48;91.37;100938.81;5011936;28;20037;-77
2022/10/16 02:30:38;;;;;;;3.80;1.27;;;;;;;11.46;91.40;100928.47;5010364;28;20052;-77
2022/10/16 02:33:07;;;;;;;2.05;1.33;;;;;;;11.44;91.57;100934.63;5013329;28;20061;-77
2022/10/16 02:35:32;;;;;;;2.38;1.50;;;;;;;11.42;91.57;100929.44;4996117;28;20048;-77
2022/10/16 02:37:59;;;;;;;3.42;1.73;;;;;;;11.41;91.64;100930.34;5012726;28;20377;-78
2022/10/16 02:40:25;;;;;;;2.45;1.30;;;;;;;11.38;91.57;100927.81;5012301;28;20053;-78
2022/10/16 02:42:52;;;;;;;2.63;1.20;;;;;;;11.37;91.43;100933.91;5012670;28;20025;-77
2022/10/16 02:45:18;;;;;;;3.80;1.42;;;;;;;11.35;91.26;100936.56;5010264;28;20034;-77
2022/10/16 02:47:44;;;;;;;2.88;1.52;;;;;;;11.34;91.69;100945.28;5012449;28;20065;-77
2022/10/16 02:50:09;;;;;;;2.40;1.40;;;;;;;11.34;91.52;100940.06;5012066;28;20034;-77
2022/10/16 02:52:34;;;;;;;3.97;1.33;;;;;;;11.33;91.49;100935.75;5012352;28;20144;-77
2022/10/16 02:55:00;;;;;;;1.80;1.20;;;;;;;11.31;91.21;100929.72;5011779;28;20033;-78
2022/10/16 02:57:25;;;;;;;1.45;1.17;;;;;;;11.31;91.40;100924.53;5011923;28;20048;-77
2022/10/16 02:59:50;;;;;;;3.67;1.40;;;;;;;11.30;91.51;100921.97;5012433;28;20060;-77
2022/10/16 03:02:16;;;;;;;2.40;1.25;;;;;;;11.29;91.52;100915.88;5012465;28;20018;-77
2022/10/16 03:04:41;;;;;;;1.70;1.38;;;;;;;11.28;91.32;100919.38;5014481;28;20507;-77
2022/10/16 03:07:07;;;;;;;2.42;1.35;;;;;;;11.28;91.21;100924.59;5013457;28;20056;-78
2022/10/16 03:09:32;;;;;;;5.80;1.63;;;;;;;11.27;91.23;100932.47;4995078;28;20108;-78
2022/10/16 03:11:58;;;;;;;2.88;1.30;;;;;;;11.26;91.33;100946.38;5017295;28;20117;-77
2022/10/16 03:14:23;;;;;;;4.15;1.20;;;;;;;11.24;91.41;100949.03;5016795;28;20083;-77
2022/10/16 03:16:48;;;;;;;2.65;1.33;;;;;;;11.24;91.48;100949.03;5017039;28;20030;-77
2022/10/16 03:19:15;;;;;;;2.42;1.45;;;;;;;11.20;91.57;100950.84;5014514;28;20112;-77
2022/10/16 03:21:40;;;;;;;2.20;1.20;;;;;;;11.21;91.61;100947.34;5015584;28;20057;-77
2022/10/16 03:24:06;;;;;;;1.60;1.10;;;;;;;11.21;91.75;100944.75;5016443;28;20061;-78
2022/10/16 03:26:31;;;;;;;2.60;1.40;;;;;;;11.20;91.51;100960.44;5011165;28;20045;-77
2022/10/16 03:28:56;;;;;;;2.30;1.48;;;;;;;11.21;91.61;100969.94;5021144;28;20029;-78
2022/10/16 03:31:22;;;;;;;1.60;1.10;;;;;;;11.20;91.75;100957.81;5008844;28;20169;-77
2022/10/16 03:33:47;;;;;;;2.35;1.38;;;;;;;11.21;91.44;100964.75;5017759;28;20026;-77
2022/10/16 03:36:12;;;;;;;3.13;1.23;;;;;;;11.20;91.57;100968.25;4998902;28;20053;-77
2022/10/16 03:38:37;;;;;;;2.60;1.20;;;;;;;11.19;91.70;100969.13;5017163;28;20037;-77
2022/10/16 03:41:03;;;;;;;2.83;1.25;;;;;;;11.19;91.81;100976.94;5018912;28;20385;-77
2022/10/16 03:43:29;;;;;;;2.45;1.33;;;;;;;11.17;91.80;100971.78;5026041;28;20080;-77
2022/10/16 03:45:54;;;;;;;3.83;1.35;;;;;;;11.18;91.78;100970.03;5015978;28;20444;-77
2022/10/16 03:48:19;;;;;;;1.85;1.10;;;;;;;11.17;91.96;100971.78;5018679;28;20053;-77
2022/10/16 03:50:46;;;;;;;1.73;1.15;;;;;;;11.17;92.10;100969.19;5016261;28;20599;-77
2022/10/16 03:53:11;;;;;;;2.03;1.30;;;;;;;11.17;91.96;100973.53;5017811;28;20544;-77
2022/10/16 03:55:37;;;;;;;1.48;1.15;;;;;;;11.17;91.99;100978.72;5017744;28;20545;-77
2022/10/16 03:58:02;;;;;;;2.50;1.20;;;;;;;11.16;91.92;100977.03;5020663;28;20029;-77
2022/10/16 04:00:27;;;;;;;2.55;1.30;;;;;;;11.16;91.98;100979.63;5020828;28;20026;-77
2022/10/16 04:02:53;;;;;;;2.80;1.25;;;;;;;11.15;92.10;100980.53;5016635;28;20132;-77
2022/10/16 04:05:18;;;;;;;3.50;1.10;;;;;;;11.13;92.20;100972.75;4998520;28;20029;-77
2022/10/16 04:07:43;;;;;;;2.47;1.60;;;;;;;11.13;92.41;100972.75;5014122;28;20025;-77
2022/10/16 04:10:09;;;;;;;1.80;1.20;;;;;;;11.14;92.57;100984.00;5015612;28;20044;-77
2022/10/16 04:12:34;;;;;;;2.05;1.10;;;;;;;11.13;92.71;100982.31;5017362;28;20022;-77
2022/10/16 04:14:59;;;;;;;2.38;1.20;;;;;;;11.14;92.42;100984.00;5024130;28;20025;-77
2022/10/16 04:17:24;;;;;;;1.65;1.10;;;;;;;11.14;92.57;100984.88;5016484;28;20025;-77
2022/10/16 04:19:50;;;;;;;2.40;1.38;;;;;;;11.15;92.80;100990.94;5022786;28;20413;-77
2022/10/16 04:22:15;;;;;;;3.55;1.20;;;;;;;11.14;92.76;100989.22;5017619;28;20028;-77
2022/10/16 04:24:40;;;;;;;1.77;1.20;;;;;;;11.14;92.77;100995.31;5019688;28;20033;-77
2022/10/16 04:27:05;;;;;;;2.33;1.10;;;;;;;11.13;92.55;100988.38;5020349;28;20041;-77
2022/10/16 04:29:31;;;;;;;1.33;1.02;;;;;;;11.13;92.61;100995.31;5022897;28;20025;-77
2022/10/16 04:31:56;;;;;;;2.17;1.10;;;;;;;11.13;92.61;100997.94;5013896;28;20582;-77
2022/10/16 04:34:21;;;;;;;2.47;1.20;;;;;;;11.12;92.81;100997.09;5017264;28;20083;-77
2022/10/16 04:36:49;;;;;;;1.83;1.10;;;;;;;11.13;93.14;100995.31;5016295;28;20405;-77
2022/10/16 04:39:14;;;;;;;3.20;1.30;;;;;;;11.14;92.90;100991.81;5017916;28;20030;-77
2022/10/16 04:41:39;;;;;;;4.18;1.23;;;;;;;11.14;92.62;100991.81;5017764;28;20026;-77
2022/10/16 04:44:04;;;;;;;2.60;1.15;;;;;;;11.15;93.02;100998.75;5015814;28;20100;-77
2022/10/16 04:46:30;;;;;;;3.00;1.30;;;;;;;11.14;93.23;100995.31;5022250;28;20053;-78
2022/10/16 04:48:55;;;;;;;3.88;1.40;;;;;;;11.16;92.90;100997.84;5014163;28;20408;-77
2022/10/16 04:51:20;;;;;;;2.63;1.25;;;;;;;11.16;93.16;101011.75;5000279;28;20030;-77
2022/10/16 04:53:45;;;;;;;2.65;1.20;;;;;;;11.16;93.34;101006.53;5013725;28;20374;-77
2022/10/16 04:56:11;;;;;;;3.13;1.40;;;;;;;11.18;93.33;101016.91;5014039;28;20075;-77
2022/10/16 04:58:36;;;;;;;2.70;1.20;;;;;;;11.17;93.17;101015.19;5000460;28;20575;-77
2022/10/16 05:01:01;;;;;;;2.35;1.38;;;;;;;11.17;93.30;101016.06;5020163;28;20025;-77
2022/10/16 05:03:27;;;;;;;3.20;1.40;;;;;;;11.16;93.14;101023.88;5009508;28;22151;-77
2022/10/16 05:05:52;;;;;;;2.75;1.10;;;;;;;11.16;93.18;101024.75;5013632;28;20042;-77
2022/10/16 05:08:17;;;;;;;4.45;1.40;;;;;;;11.15;93.12;101020.44;5007696;28;20037;-77
2022/10/16 05:10:43;;;;;;;2.22;1.25;;;;;;;11.15;93.17;101024.78;5018562;28;20059;-77
2022/10/16 05:13:09;;;;;;;3.58;1.30;;;;;;;11.12;93.13;101028.34;5014241;28;20104;-77
2022/10/16 05:15:34;;;;;;;2.40;1.40;;;;;;;11.13;93.16;101029.16;5021516;28;20028;-77
2022/10/16 05:18:00;;;;;;;2.05;1.08;;;;;;;11.13;93.36;101042.19;4996245;28;20423;-78
2022/10/16 05:20:25;;;;;;;3.78;1.40;;;;;;;11.12;93.26;101049.16;5010682;28;20033;-77
2022/10/16 05:22:50;;;;;;;2.03;1.27;;;;;;;11.11;93.49;101054.38;5012610;28;20026;-78
2022/10/16 05:25:16;;;;;;;4.20;1.40;;;;;;;11.11;93.35;101047.44;5016898;28;20033;-78
2022/10/16 05:27:41;;;;;;;3.78;1.30;;;;;;;11.11;92.99;101051.78;5022199;28;20113;-77
2022/10/16 05:30:07;;;;;;;2.67;1.20;;;;;;;11.11;93.66;101049.19;5013410;28;20063;-77
2022/10/16 05:32:32;;;;;;;3.47;1.45;;;;;;;11.11;93.36;101049.19;5015886;28;20026;-77
2022/10/16 05:34:59;;;;;;;2.55;1.73;;;;;;;11.10;93.47;101055.31;5017309;28;20033;-77
2022/10/16 05:37:25;;;;;;;4.53;1.83;;;;;;;11.10;93.51;101055.31;4991769;28;20397;-77
2022/10/16 05:39:50;;;;;;;4.13;1.40;;;;;;;11.08;93.53;101063.13;5011804;28;20034;-77
2022/10/16 05:42:16;;;;;;;5.22;1.50;;;;;;;11.08;93.78;101069.22;5016873;28;20025;-77
2022/10/16 05:44:41;;;;;;;2.45;1.20;;;;;;;11.07;93.73;101077.91;5015247;28;20531;-77
2022/10/16 05:47:06;;;;;;;4.32;1.33;;;;;;;11.10;93.91;101081.34;5011195;28;20048;-78
2022/10/16 05:49:31;;;;;;;3.60;1.50;;;;;;;11.11;93.77;101094.31;5013430;28;20531;-77
2022/10/16 05:51:57;;;;;;;2.25;1.20;;;;;;;11.12;94.04;101089.94;5015043;28;20385;-77
2022/10/16 05:54:22;;;;;;;5.30;1.38;;;;;;;11.12;93.95;101103.84;5011127;28;20030;-77
2022/10/16 05:56:47;;;;;;;3.15;1.42;;;;;;;11.14;93.93;101111.59;5010922;28;20057;-77
2022/10/16 05:59:13;;;;;;;2.40;1.40;;;;;;;11.14;94.17;101115.09;5005118;28;20017;-77
2022/10/16 06:01:38;;;;;;;3.92;1.40;;;;;;;11.14;94.02;101120.28;5011921;28;20022;-77
2022/10/16 06:04:04;;;;;;;3.67;1.60;;;;;;;11.15;94.10;101127.22;5010462;28;20033;-77
2022/10/16 06:06:30;;;;;;;3.45;1.20;;;;;;;11.16;94.06;101128.06;5013541;28;20022;-77
2022/10/16 06:08:56;;;;;;;2.55;1.38;;;;;;;11.18;94.28;101126.28;5013059;28;20092;-77
2022/10/16 06:11:27;;;;;;;3.33;1.25;;;;;;;11.17;94.04;101137.56;5012758;28;20116;-77
2022/10/16 06:13:56;;;;;;;2.33;1.30;;;;;;;11.16;93.95;101135.88;5008952;28;20030;-77
2022/10/16 06:16:22;;;;;;;4.45;1.40;;;;;;;11.16;93.83;101139.34;5011758;28;20036;-77
2022/10/16 06:18:47;;;;;;;2.60;1.33;;;;;;;11.16;94.00;101143.66;5019379;28;20029;-77
2022/10/16 06:21:26;;;;;;;3.45;1.30;;;;;;;11.16;93.76;101148.88;5013886;28;20095;-77
2022/10/16 06:23:52;;;;;;;2.10;1.20;;;;;;;11.15;93.87;101147.16;5011538;28;20022;-77
2022/10/16 06:26:20;;;;;;;2.63;1.50;;;;;;;11.13;93.79;101160.25;5012442;28;20022;-77
2022/10/16 06:28:46;;;;;;;4.28;1.30;;;;;;;11.14;93.84;101150.66;5007659;28;20056;-77
2022/10/16 06:31:13;;;;;;;1.73;1.23;;;;;;;11.12;93.82;101155.03;5011277;28;20057;-77
2022/10/16 06:33:39;;;;;;;4.18;1.42;;;;;;;11.11;93.91;101161.13;5016037;28;20080;-77
2022/10/16 06:36:10;;;;;;;2.45;1.30;;;;;;;11.12;94.09;101162.84;5011976;28;20068;-77
2022/10/16 06:38:36;;;;;;;3.10;1.50;;;;;;;11.13;93.96;101169.78;5010182;28;20041;-77
2022/10/16 06:41:01;;;;;;;4.18;1.40;;;;;;;11.14;94.00;101171.50;5009570;28;20061;-77
2022/10/16 06:43:34;;;;;;;4.38;1.50;;;;;;;11.16;94.06;101180.13;5010047;28;20057;-77
2022/10/16 06:46:01;;;;;;;4.03;1.60;;;;;;;11.18;94.13;101183.56;5016982;28;20021;-77
2022/10/16 06:48:27;;;;;;;2.67;1.50;;;;;;;11.19;94.36;101187.88;5018081;28;20470;-77
2022/10/16 06:50:55;;;;;;;2.67;1.50;;;;;;;11.22;94.40;101187.81;4996846;28;20026;-78
2022/10/16 06:53:21;;;;;;;2.15;1.30;;;;;;;11.24;94.49;101199.06;5012567;28;20084;-77
2022/10/16 06:55:46;;;;;;;4.00;1.40;;;;;;;11.28;94.43;101199.84;5014197;28;20033;-77
2022/10/16 06:58:11;;;;;;;5.57;1.67;;;;;;;11.30;94.95;101198.91;5010506;28;20041;-77
2022/10/16 07:00:36;;;;;;;2.70;1.48;;;;;;;11.35;94.30;101196.22;4977360;28;20382;-77
2022/10/16 07:03:02;;;;;;;2.20;1.60;;;;;;;11.36;94.65;101201.38;5011277;28;20026;-77
2022/10/16 07:05:27;;;;;;;2.90;1.40;;;;;;;11.41;94.53;101216.88;5011474;28;20025;-77
2022/10/16 07:07:52;;;;;;;3.22;1.60;;;;;;;11.46;94.74;101211.56;5023860;28;20030;-77
2022/10/16 07:10:17;;;;;;;2.95;1.58;;;;;;;11.50;94.75;101214.09;5018258;28;20029;-77
2022/10/16 07:12:44;;;;;;;2.83;1.70;;;;;;;11.57;94.27;101216.53;5019841;28;20026;-78
2022/10/16 07:15:10;;;;;;;3.13;1.60;;;;;;;11.61;94.41;101216.44;5011867;28;20092;-77
2022/10/16 07:17:35;;;;;;;2.47;1.70;;;;;;;11.67;94.36;101224.09;5013177;28;20433;-77
2022/10/16 07:20:01;;;;;;;3.30;1.65;;;;;;;11.72;94.47;101220.53;5013061;28;20018;-77
2022/10/16 07:22:28;;;;;;;2.45;1.60;;;;;;;11.76;93.78;101238.66;5014302;28;20029;-77
2022/10/16 07:24:53;;;;;;;3.33;1.85;;;;;;;11.82;93.57;101238.50;5013931;28;20080;-77
2022/10/16 07:27:18;;;;;;;3.38;1.88;;;;;;;11.86;94.02;101234.06;4995036;28;20022;-77
2022/10/16 07:29:44;;;;;;;3.25;1.98;;;;;;;11.92;93.89;101246.97;5015048;28;20032;-78
2022/10/16 07:32:09;;;;;;;2.55;1.67;;;;;;;11.96;93.52;101255.56;5014504;28;20104;-77
2022/10/16 07:34:34;;;;;;;2.58;1.83;;;;;;;12.01;93.53;101258.06;5013583;28;20079;-77
2022/10/16 07:36:59;;;;;;;4.45;1.70;;;;;;;12.05;93.15;101264.94;5014472;28;20123;-77
2022/10/16 07:39:25;;;;;;;4.63;1.70;;;;;;;12.09;92.97;101269.19;5014375;28;20500;-77
2022/10/16 07:41:50;;;;;;;5.32;1.83;;;;;;;12.13;92.94;101276.00;5013194;28;20041;-78
2022/10/16 07:44:16;;;;;;;4.15;1.80;;;;;;;12.16;93.15;101277.72;5013006;28;20029;-77
2022/10/16 07:46:41;;;;;;;6.63;1.90;;;;;;;12.18;92.82;101279.38;5011678;28;20405;-77
2022/10/16 07:49:06;;;;;;;2.47;1.65;;;;;;;12.23;92.76;101287.06;5014541;28;20061;-77
2022/10/16 07:51:32;;;;;;;2.85;1.70;;;;;;;12.27;92.58;101289.59;5012737;28;20459;-78
2022/10/16 07:53:57;;;;;;;3.45;1.50;;;;;;;12.32;92.53;101293.81;5012348;28;20030;-77
2022/10/16 07:56:22;;;;;;;3.03;1.60;;;;;;;12.37;92.80;101297.16;5012391;28;20557;-77
2022/10/16 07:58:49;;;;;;;3.10;1.60;;;;;;;12.42;92.52;101287.47;5014896;28;20513;-77
2022/10/16 08:01:16;;;;;;;3.47;1.50;;;;;;;12.47;92.95;101297.78;5014019;28;20025;-77
2022/10/16 08:03:46;;;;;;;3.65;1.45;;;;;;;12.53;92.64;101298.47;5008198;28;20108;-77
2022/10/16 08:06:12;;;;;;;2.80;1.30;;;;;;;12.59;92.13;101303.53;5008092;28;20034;-76
2022/10/16 08:08:37;;;;;;;4.43;1.50;;;;;;;12.64;91.98;101299.94;5005331;28;20132;-77
2022/10/16 08:11:05;;;;;;;3.65;1.33;;;;;;;12.69;92.24;101311.97;5006755;28;20037;-77
2022/10/16 08:13:31;;;;;;;3.72;1.33;;;;;;;12.74;91.57;101317.91;5004347;28;20112;-76
2022/10/16 08:15:56;;;;;;;2.60;1.30;;;;;;;12.78;90.84;101316.09;5005866;28;20103;-77
2022/10/16 08:18:22;;;;;;;2.38;1.20;;;;;;;12.83;91.24;101321.19;5005618;28;21447;-77
2022/10/16 08:20:47;;;;;;;3.67;1.40;;;;;;;12.86;90.30;101331.56;5008013;28;20104;-76
2022/10/16 08:23:13;;;;;;;2.80;1.48;;;;;;;12.89;90.17;101329.69;5005706;28;20057;-76
2022/10/16 08:25:39;;;;;;;3.40;1.60;;;;;;;12.94;89.89;101332.19;4989022;28;20037;-76
2022/10/16 08:28:06;;;;;;;3.67;1.25;;;;;;;12.97;89.51;101342.53;4988612;28;20057;-76
2022/10/16 08:30:32;;;;;;;4.47;1.30;;;;;;;13.00;89.87;101341.59;5008630;28;20084;-77
2022/10/16 08:32:57;;;;;;;3.97;1.13;;;;;;;13.03;89.38;101341.50;5005864;28;20397;-77
2022/10/16 08:35:23;;;;;;;3.63;1.33;;;;;;;13.09;89.24;101348.31;5008134;28;20545;-77
2022/10/16 08:37:48;;;;;;;2.40;1.10;;;;;;;13.13;89.12;101347.34;5007242;28;20400;-77
2022/10/16 08:40:26;;;;;;;3.17;1.80;;;;;;;13.18;89.36;101351.53;5008145;28;20038;-77
2022/10/16 08:43:09;;;;;;;2.28;1.30;;;;;;;13.23;88.72;101361.00;5007087;28;20041;-77
2022/10/16 08:46:00;;;;;;;3.55;1.30;;;;;;;13.30;88.82;101363.38;5007632;28;20084;-77
2022/10/16 08:48:34;;;;;;;2.83;1.20;;;;;;;13.40;88.81;101378.81;5007125;28;20053;-77
2022/10/16 08:51:02;;;;;;;3.95;1.33;;;;;;;13.44;87.67;101370.88;5008507;28;20496;-77
2022/10/16 08:53:43;;;;;;;3.83;1.23;;;;;;;13.47;88.28;101370.78;5006065;28;20042;-77
2022/10/16 08:56:09;;;;;;;6.03;1.30;;;;;;;13.51;87.92;101372.38;5005844;28;20037;-77
2022/10/16 08:58:34;;;;;;;5.40;1.40;;;;;;;13.55;87.90;101382.75;5009970;28;20028;-77
2022/10/16 09:01:10;;;;;;;4.40;1.30;;;;;;;13.58;87.54;101377.44;5006836;28;20041;-78
2022/10/16 09:04:00;;;;;;;2.42;1.30;;;;;;;13.61;87.58;101377.34;5007435;28;20034;-77
2022/10/16 09:06:46;;;;;;;7.97;1.40;;;;;;;13.65;87.67;101384.22;5004029;28;20084;-77
2022/10/16 09:09:17;;;;;;;1.90;1.30;;;;;;;13.68;86.16;101383.25;5004554;28;20037;-77
2022/10/16 09:11:57;;;;;;;4.32;1.38;;;;;;;13.72;86.43;101390.94;5005295;28;20849;-77
2022/10/16 09:15:00;;;;;;;3.30;1.80;;;;;;;13.75;85.81;101392.63;5004410;28;20446;-77
2022/10/16 09:17:59;;;;;;;4.15;1.40;;;;;;;13.77;85.50;101399.53;5006005;28;20114;-77
2022/10/16 09:20:32;;;;;;;6.45;1.30;;;;;;;13.80;85.08;101402.06;5005495;28;20037;-76
2022/10/16 09:23:27;;;;;;;4.82;1.40;;;;;;;13.84;85.00;101409.78;5006461;28;20053;-77
2022/10/16 09:25:54;;;;;;;4.15;1.30;;;;;;;13.89;84.68;101410.50;5004165;28;20056;-77
2022/10/16 09:28:20;;;;;;;5.38;1.20;;;;;;;13.93;85.01;101407.75;4987411;28;20045;-77
2022/10/16 09:30:48;;;;;;;4.80;1.30;;;;;;;13.99;84.94;101411.06;5002749;28;20058;-77
2022/10/16 09:33:14;;;;;;;6.45;1.45;;;;;;;14.02;83.61;101414.44;5004907;28;20124;-77
2022/10/16 09:35:46;;;;;;;3.97;1.10;;;;;;;14.04;84.12;101423.09;5006653;28;20061;-77
2022/10/16 09:38:29;;;;;;;5.03;1.08;;;;;;;14.06;83.45;101416.06;5007431;28;20041;-78
2022/10/16 09:40:57;;;;;;;4.93;1.25;;;;;;;14.10;82.36;101420.31;5008608;28;20080;-77
2022/10/16 09:43:53;;;;;;;3.13;1.30;;;;;;;14.15;83.41;101412.31;5004556;28;20676;-78
2022/10/16 09:46:32;;;;;;;3.15;1.10;;;;;;;14.22;82.40;101412.97;5003088;28;20108;-77
2022/10/16 09:49:03;;;;;;;6.32;1.35;;;;;;;14.24;81.97;101419.00;5007128;28;20029;-78
2022/10/16 09:51:37;;;;;;;4.55;1.08;;;;;;;14.27;81.17;101419.75;5005853;28;20091;-78
2022/10/16 09:54:14;;;;;;;7.32;1.27;;;;;;;14.27;82.15;101413.69;5005683;28;20052;-76
2022/10/16 09:56:40;;;;;;;3.38;1.20;;;;;;;14.30;81.10;101418.84;5007822;28;20033;-77
2022/10/16 09:59:14;;;;;;;5.07;1.33;;;;;;;14.38;82.82;101423.81;5005279;28;20026;-77
2022/10/16 10:01:45;;;;;;;5.05;1.10;;;;;;;14.47;82.05;101426.13;5006477;28;20164;-77
2022/10/16 10:04:11;;;;;;;8.43;1.40;;;;;;;14.49;80.17;101433.94;5006175;28;20026;-78
2022/10/16 10:06:40;;;;;;;4.30;1.20;;;;;;;14.51;78.39;101432.13;5004071;28;20405;-78
2022/10/16 10:09:17;;;;;;;6.07;1.42;;;;;;;14.55;79.11;101423.25;5007541;28;20090;-78
2022/10/16 10:11:53;;;;;;;5.63;1.10;;;;;;;14.54;78.76;101430.25;5006336;28;20037;-77
2022/10/16 10:14:31;;;;;;;8.68;1.50;;;;;;;14.56;78.78;101431.06;5004439;28;20263;-77
2022/10/16 10:17:05;;;;;;;6.93;1.38;;;;;;;14.63;79.99;101436.97;4987195;28;20030;-77
2022/10/16 10:19:49;;;;;;;6.78;1.38;;;;;;;14.67;78.99;101438.56;5005870;28;20030;-78
2022/10/16 10:22:28;;;;;;;7.60;1.20;;;;;;;14.74;79.85;101443.63;5002965;28;20025;-78
2022/10/16 10:25:08;;;;;;;3.83;1.00;;;;;;;14.78;78.43;101445.22;5002819;28;20033;-77
2022/10/16 10:27:52;;;;;;;8.18;1.55;;;;;;;14.87;78.44;101447.53;5005136;28;20029;-77
2022/10/16 10:30:30;;;;;;;4.35;1.20;;;;;;;14.95;79.14;101453.38;5006540;28;20038;-77
2022/10/16 10:33:32;;;;;;;4.75;1.10;;;;;;;15.01;79.17;101455.78;5006345;28;20030;-77
2022/10/16 10:36:22;;;;;;;6.15;1.40;;;;;;;15.06;78.50;101460.00;5005840;28;20099;-77
2022/10/16 10:38:57;;;;;;;5.18;1.20;;;;;;;15.06;75.55;101460.88;5005684;28;20482;-78
2022/10/16 10:41:59;;;;;;;6.60;1.30;;;;;;;15.07;76.83;101462.59;5004035;28;20025;-77
2022/10/16 10:44:55;;;;;;;6.47;1.10;;;;;;;15.07;76.93;101453.84;5003353;28;20030;-78
2022/10/16 10:48:08;;;;;;;8.02;1.00;;;;;;;15.10;76.62;101456.38;5007860;28;20128;-77
2022/10/16 10:50:49;;;;;;;5.80;1.10;;;;;;;15.14;77.32;101463.22;4972685;28;20821;-77
2022/10/16 10:53:42;;;;;;;5.95;1.10;;;;;;;15.15;76.98;101460.53;5006499;28;20121;-78
2022/10/16 10:56:22;;;;;;;4.60;1.08;;;;;;;15.14;73.71;101458.81;5005116;28;20038;-77
2022/10/16 10:59:25;;;;;;;7.88;1.20;;;;;;;15.13;75.61;101461.50;5003791;28;20049;-76
2022/10/16 11:01:56;;;;;;;3.17;1.00;;;;;;;15.12;74.25;101462.41;5007747;28;20469;-77
2022/10/16 11:04:42;;;;;;;2.70;1.10;;;;;;;15.15;76.01;101464.94;5006660;28;20037;-77
2022/10/16 11:07:18;;;;;;;4.35;1.38;;;;;;;15.20;75.05;101462.16;5005152;28;20061;-78
2022/10/16 11:09:51;;;;;;;4.40;1.05;;;;;;;15.22;74.09;101470.81;5004450;28;20507;-77
2022/10/16 11:12:19;;;;;;;5.30;0.98;;;;;;;15.26;73.11;101480.28;5005677;28;20466;-77
2022/10/16 11:15:14;;;;;;;6.97;1.00;;;;;;;15.30;74.61;101474.00;5006147;28;20034;-77
2022/10/16 11:17:50;;;;;;;5.35;1.00;;;;;;;15.33;71.82;101473.91;5002244;28;20038;-77
2022/10/16 11:20:18;;;;;;;6.93;1.52;;;;;;;15.37;70.36;101477.28;5006332;28;20042;-78
2022/10/16 11:22:49;;;;;;;6.30;1.10;;;;;;;15.42;69.19;101475.34;5006442;28;20064;-77
2022/10/16 11:25:30;;;;;;;4.43;1.10;;;;;;;15.46;70.68;101472.53;5006577;28;20165;-77
2022/10/16 11:28:26;;;;;;;5.15;1.20;;;;;;;15.53;70.96;101469.72;5006535;28;20029;-77
2022/10/16 11:31:17;;;;;;;5.28;1.05;;;;;;;15.53;71.40;101467.09;5006070;28;20060;-76
2022/10/16 11:33:56;;;;;;;9.03;1.20;;;;;;;15.47;70.31;101473.41;5005766;28;20033;-78
2022/10/16 11:36:38;;;;;;;5.93;1.13;;;;;;;15.45;71.28;101475.25;5004496;28;20040;-78
2022/10/16 11:39:06;;;;;;;;;;;;;;;15.50;74.16;101475.06;5006101;28;20033;-77